sensor_id;sensor_type;location;lat;lon;timestamp;pressure;altitude;pressure_sealevel;temperature;humidity
59043;BME280;44826;51.596;5.624;2024-03-08T00:01:30;101724.75;;;2.33;93.39
59043;BME280;44826;51.596;5.624;2024-03-08T00:03:56;101726.41;;;2.31;93.24
59043;BME280;44826;51.596;5.624;2024-03-08T00:06:21;101728.13;;;2.30;93.11
59043;BME280;44826;51.596;5.624;2024-03-08T00:08:46;101718.63;;;2.27;93.10
59043;BME280;44826;51.596;5.624;2024-03-08T00:11:12;101714.31;;;2.26;92.90
59043;BME280;44826;51.596;5.624;2024-03-08T00:13:37;101722.78;;;2.22;93.19
59043;BME280;44826;51.596;5.624;2024-03-08T00:16:02;101716.78;;;2.22;93.01
59043;BME280;44826;51.596;5.624;2024-03-08T00:18:28;101718.47;;;2.20;93.18
59043;BME280;44826;51.596;5.624;2024-03-08T00:20:54;101717.66;;;2.22;92.83
59043;BME280;44826;51.596;5.624;2024-03-08T00:23:19;101716.78;;;2.22;92.74
59043;BME280;44826;51.596;5.624;2024-03-08T00:25:44;101709.91;;;2.19;92.46
59043;BME280;44826;51.596;5.624;2024-03-08T00:28:09;101714.91;;;2.15;92.56
59043;BME280;44826;51.596;5.624;2024-03-08T00:30:38;101708.09;;;2.15;92.62
59043;BME280;44826;51.596;5.624;2024-03-08T00:33:05;101708.00;;;2.10;92.69
59043;BME280;44826;51.596;5.624;2024-03-08T00:35:30;101702.78;;;2.07;92.60
59043;BME280;44826;51.596;5.624;2024-03-08T00:37:55;101701.91;;;2.07;92.73
59043;BME280;44826;51.596;5.624;2024-03-08T00:40:21;101697.59;;;2.06;93.04
59043;BME280;44826;51.596;5.624;2024-03-08T00:42:47;101698.44;;;2.05;92.92
59043;BME280;44826;51.596;5.624;2024-03-08T00:45:13;101688.13;;;2.02;92.70
59043;BME280;44826;51.596;5.624;2024-03-08T00:47:38;101692.34;;;2.01;92.66
59043;BME280;44826;51.596;5.624;2024-03-08T00:50:04;101688.88;;;1.97;92.55
59043;BME280;44826;51.596;5.624;2024-03-08T00:52:29;101686.28;;;1.96;92.66
59043;BME280;44826;51.596;5.624;2024-03-08T00:54:55;101683.72;;;1.96;92.55
59043;BME280;44826;51.596;5.624;2024-03-08T00:57:20;101681.13;;;1.96;92.29
59043;BME280;44826;51.596;5.624;2024-03-08T00:59:47;101673.38;;;1.93;92.46
59043;BME280;44826;51.596;5.624;2024-03-08T01:02:12;101678.41;;;1.90;92.61
59043;BME280;44826;51.596;5.624;2024-03-08T01:04:38;101665.53;;;1.88;92.14
59043;BME280;44826;51.596;5.624;2024-03-08T01:07:03;101666.34;;;1.86;92.18
59043;BME280;44826;51.596;5.624;2024-03-08T01:09:28;101664.59;;;1.83;92.41
59043;BME280;44826;51.596;5.624;2024-03-08T01:11:54;101656.00;;;1.82;92.24
59043;BME280;44826;51.596;5.624;2024-03-08T01:14:21;101651.69;;;1.81;92.05
59043;BME280;44826;51.596;5.624;2024-03-08T01:16:49;101651.69;;;1.81;92.30
59043;BME280;44826;51.596;5.624;2024-03-08T01:19:15;101650.78;;;1.78;92.15
59043;BME280;44826;51.596;5.624;2024-03-08T01:21:41;101641.25;;;1.74;92.42
59043;BME280;44826;51.596;5.624;2024-03-08T01:24:06;101636.97;;;1.73;92.71
59043;BME280;44826;51.596;5.624;2024-03-08T01:26:31;101642.06;;;1.71;92.29
59043;BME280;44826;51.596;5.624;2024-03-08T01:28:59;101637.75;;;1.69;92.35
59043;BME280;44826;51.596;5.624;2024-03-08T01:31:24;101640.25;;;1.67;92.45
59043;BME280;44826;51.596;5.624;2024-03-08T01:33:49;101641.13;;;1.67;92.22
59043;BME280;44826;51.596;5.624;2024-03-08T01:36:15;101636.78;;;1.65;92.06
59043;BME280;44826;51.596;5.624;2024-03-08T01:38:42;101635.88;;;1.63;92.13
59043;BME280;44826;51.596;5.624;2024-03-08T01:41:07;101635.84;;;1.61;92.29
59043;BME280;44826;51.596;5.624;2024-03-08T01:43:34;101647.00;;;1.62;92.20
59043;BME280;44826;51.596;5.624;2024-03-08T01:45:59;101639.22;;;1.60;92.43
59043;BME280;44826;51.596;5.624;2024-03-08T01:48:26;101641.72;;;1.57;92.38
59043;BME280;44826;51.596;5.624;2024-03-08T01:50:53;101634.03;;;1.57;92.17
59043;BME280;44826;51.596;5.624;2024-03-08T01:53:20;101634.84;;;1.55;92.16
59043;BME280;44826;51.596;5.624;2024-03-08T01:55:47;101626.19;;;1.51;92.38
59043;BME280;44826;51.596;5.624;2024-03-08T01:58:13;101621.03;;;1.49;92.06
59043;BME280;44826;51.596;5.624;2024-03-08T02:00:43;101621.03;;;1.49;92.26
59043;BME280;44826;51.596;5.624;2024-03-08T02:03:10;101619.28;;;1.48;92.16
59043;BME280;44826;51.596;5.624;2024-03-08T02:05:36;101610.69;;;1.46;92.16
59043;BME280;44826;51.596;5.624;2024-03-08T02:08:02;101605.50;;;1.43;92.40
59043;BME280;44826;51.596;5.624;2024-03-08T02:10:28;101608.91;;;1.44;92.23
59043;BME280;44826;51.596;5.624;2024-03-08T02:12:54;101602.06;;;1.43;92.04
59043;BME280;44826;51.596;5.624;2024-03-08T02:15:20;101602.88;;;1.42;91.86
59043;BME280;44826;51.596;5.624;2024-03-08T02:17:46;101597.66;;;1.37;92.08
59043;BME280;44826;51.596;5.624;2024-03-08T02:20:12;101594.25;;;1.36;92.12
59043;BME280;44826;51.596;5.624;2024-03-08T02:22:38;101595.88;;;1.34;92.33
59043;BME280;44826;51.596;5.624;2024-03-08T02:25:04;101589.88;;;1.34;92.16
59043;BME280;44826;51.596;5.624;2024-03-08T02:27:30;101587.28;;;1.32;92.07
59043;BME280;44826;51.596;5.624;2024-03-08T02:29:56;101587.22;;;1.31;92.06
59043;BME280;44826;51.596;5.624;2024-03-08T02:32:23;101579.53;;;1.29;92.25
59043;BME280;44826;51.596;5.624;2024-03-08T02:34:49;101580.31;;;1.27;91.83
59043;BME280;44826;51.596;5.624;2024-03-08T02:37:15;101573.38;;;1.23;91.84
59043;BME280;44826;51.596;5.624;2024-03-08T02:39:40;101571.59;;;1.20;92.04
59043;BME280;44826;51.596;5.624;2024-03-08T02:42:06;101568.16;;;1.19;92.24
59043;BME280;44826;51.596;5.624;2024-03-08T02:44:32;101569.81;;;1.16;92.17
59043;BME280;44826;51.596;5.624;2024-03-08T02:46:58;101560.38;;;1.15;92.17
59043;BME280;44826;51.596;5.624;2024-03-08T02:49:25;101574.03;;;1.14;92.56
59043;BME280;44826;51.596;5.624;2024-03-08T02:51:51;101568.84;;;1.12;92.01
59043;BME280;44826;51.596;5.624;2024-03-08T02:54:17;101564.50;;;1.10;92.38
59043;BME280;44826;51.596;5.624;2024-03-08T02:56:42;101561.94;;;1.08;92.26
59043;BME280;44826;51.596;5.624;2024-03-08T02:59:07;101557.66;;;1.09;92.02
59043;BME280;44826;51.596;5.624;2024-03-08T03:01:33;101555.00;;;1.05;92.10
59043;BME280;44826;51.596;5.624;2024-03-08T03:04:01;101554.97;;;1.02;92.22
59043;BME280;44826;51.596;5.624;2024-03-08T03:06:27;101548.03;;;1.00;92.38
59043;BME280;44826;51.596;5.624;2024-03-08T03:08:52;101546.31;;;0.99;92.39
59043;BME280;44826;51.596;5.624;2024-03-08T03:11:17;101543.72;;;0.97;92.31
59043;BME280;44826;51.596;5.624;2024-03-08T03:13:43;101540.25;;;0.95;92.28
59043;BME280;44826;51.596;5.624;2024-03-08T03:16:19;101538.50;;;0.94;92.56
59043;BME280;44826;51.596;5.624;2024-03-08T03:18:45;101536.78;;;0.93;92.44
59043;BME280;44826;51.596;5.624;2024-03-08T03:21:10;101531.56;;;0.90;92.44
59043;BME280;44826;51.596;5.624;2024-03-08T03:23:37;101537.50;;;0.89;92.39
59043;BME280;44826;51.596;5.624;2024-03-08T03:26:05;101531.47;;;0.87;92.45
59043;BME280;44826;51.596;5.624;2024-03-08T03:28:32;101531.47;;;0.85;92.79
59043;BME280;44826;51.596;5.624;2024-03-08T03:30:58;101529.75;;;0.86;92.43
59043;BME280;44826;51.596;5.624;2024-03-08T03:33:24;101538.31;;;0.86;92.63
59043;BME280;44826;51.596;5.624;2024-03-08T03:35:49;101535.72;;;0.85;92.11
59043;BME280;44826;51.596;5.624;2024-03-08T03:38:16;101526.53;;;0.93;91.95
59043;BME280;44826;51.596;5.624;2024-03-08T03:40:42;101523.69;;;0.82;92.23
59043;BME280;44826;51.596;5.624;2024-03-08T03:43:10;101526.22;;;0.81;92.02
59043;BME280;44826;51.596;5.624;2024-03-08T03:45:36;101515.97;;;0.81;92.00
59043;BME280;44826;51.596;5.624;2024-03-08T03:48:06;101514.16;;;0.77;91.96
59043;BME280;44826;51.596;5.624;2024-03-08T03:50:32;101508.94;;;0.73;92.39
59043;BME280;44826;51.596;5.624;2024-03-08T03:52:59;101511.47;;;0.72;92.45
59043;BME280;44826;51.596;5.624;2024-03-08T03:55:25;101510.59;;;0.71;92.32
59043;BME280;44826;51.596;5.624;2024-03-08T03:57:50;101517.38;;;0.69;92.25
59043;BME280;44826;51.596;5.624;2024-03-08T04:00:16;101513.94;;;0.67;92.40
59043;BME280;44826;51.596;5.624;2024-03-08T04:02:41;101510.47;;;0.65;92.14
59043;BME280;44826;51.596;5.624;2024-03-08T04:05:08;101508.72;;;0.64;92.38
59043;BME280;44826;51.596;5.624;2024-03-08T04:07:35;101505.19;;;0.60;92.39
59043;BME280;44826;51.596;5.624;2024-03-08T04:10:04;101511.19;;;0.61;92.22
59043;BME280;44826;51.596;5.624;2024-03-08T04:12:32;101510.25;;;0.57;92.59
59043;BME280;44826;51.596;5.624;2024-03-08T04:14:57;101502.53;;;0.56;92.11
59043;BME280;44826;51.596;5.624;2024-03-08T04:17:23;101504.22;;;0.55;92.40
59043;BME280;44826;51.596;5.624;2024-03-08T04:19:49;101499.97;;;0.56;92.24
59043;BME280;44826;51.596;5.624;2024-03-08T04:22:15;101502.53;;;0.56;92.31
59043;BME280;44826;51.596;5.624;2024-03-08T04:24:41;101494.75;;;0.53;92.36
59043;BME280;44826;51.596;5.624;2024-03-08T04:27:07;101488.00;;;0.55;91.99
59043;BME280;44826;51.596;5.624;2024-03-08T04:29:32;101491.38;;;0.54;92.33
59043;BME280;44826;51.596;5.624;2024-03-08T04:31:59;101493.91;;;0.52;92.26
59043;BME280;44826;51.596;5.624;2024-03-08T04:34:24;101493.03;;;0.52;92.24
59043;BME280;44826;51.596;5.624;2024-03-08T04:36:50;101499.81;;;0.50;91.90
59043;BME280;44826;51.596;5.624;2024-03-08T04:39:15;101493.78;;;0.48;92.07
59043;BME280;44826;51.596;5.624;2024-03-08T04:41:41;101489.50;;;0.47;92.16
59043;BME280;44826;51.596;5.624;2024-03-08T04:44:09;101489.50;;;0.47;91.96
59043;BME280;44826;51.596;5.624;2024-03-08T04:46:35;101483.41;;;0.43;91.76
59043;BME280;44826;51.596;5.624;2024-03-08T04:49:01;101481.75;;;0.45;91.69
59043;BME280;44826;51.596;5.624;2024-03-08T04:51:26;101483.50;;;0.46;91.91
59043;BME280;44826;51.596;5.624;2024-03-08T04:53:52;101475.69;;;0.41;91.90
59043;BME280;44826;51.596;5.624;2024-03-08T04:56:17;101473.13;;;0.40;92.09
59043;BME280;44826;51.596;5.624;2024-03-08T04:58:44;101468.91;;;0.42;91.45
59043;BME280;44826;51.596;5.624;2024-03-08T05:01:11;101464.56;;;0.39;91.93
59043;BME280;44826;51.596;5.624;2024-03-08T05:03:37;101466.25;;;0.39;91.83
59043;BME280;44826;51.596;5.624;2024-03-08T05:06:03;101462.81;;;0.38;92.16
59043;BME280;44826;51.596;5.624;2024-03-08T05:08:29;101458.50;;;0.36;91.87
59043;BME280;44826;51.596;5.624;2024-03-08T05:10:54;101464.41;;;0.33;91.87
59043;BME280;44826;51.596;5.624;2024-03-08T05:13:20;101462.69;;;0.32;92.11
59043;BME280;44826;51.596;5.624;2024-03-08T05:15:48;101466.97;;;0.33;91.77
59043;BME280;44826;51.596;5.624;2024-03-08T05:18:14;101456.66;;;0.30;91.63
59043;BME280;44826;51.596;5.624;2024-03-08T05:20:40;101457.34;;;0.24;92.13
59043;BME280;44826;51.596;5.624;2024-03-08T05:23:06;101459.03;;;0.24;92.25
59043;BME280;44826;51.596;5.624;2024-03-08T05:25:32;101453.91;;;0.24;92.04
59043;BME280;44826;51.596;5.624;2024-03-08T05:27:57;101453.06;;;0.23;91.87
59043;BME280;44826;51.596;5.624;2024-03-08T05:30:23;101451.25;;;0.21;91.97
59043;BME280;44826;51.596;5.624;2024-03-08T05:32:48;101452.06;;;0.18;92.05
59043;BME280;44826;51.596;5.624;2024-03-08T05:35:13;101463.16;;;0.19;92.43
59043;BME280;44826;51.596;5.624;2024-03-08T05:37:41;101449.47;;;0.17;92.10
59043;BME280;44826;51.596;5.624;2024-03-08T05:40:08;101453.69;;;0.16;92.52
59043;BME280;44826;51.596;5.624;2024-03-08T05:42:37;101447.75;;;0.16;92.21
59043;BME280;44826;51.596;5.624;2024-03-08T05:45:04;101450.22;;;0.14;92.15
59043;BME280;44826;51.596;5.624;2024-03-08T05:47:29;101443.38;;;0.13;92.24
59043;BME280;44826;51.596;5.624;2024-03-08T05:49:54;101445.03;;;0.11;92.10
59043;BME280;44826;51.596;5.624;2024-03-08T05:52:20;101442.44;;;0.09;92.62
59043;BME280;44826;51.596;5.624;2024-03-08T05:54:45;101443.28;;;0.10;92.12
59043;BME280;44826;51.596;5.624;2024-03-08T05:57:12;101438.97;;;0.07;92.68
59043;BME280;44826;51.596;5.624;2024-03-08T05:59:38;101439.00;;;0.09;92.30
59043;BME280;44826;51.596;5.624;2024-03-08T06:02:03;101437.22;;;0.06;92.67
59043;BME280;44826;51.596;5.624;2024-03-08T06:04:28;101435.50;;;0.05;92.45
59043;BME280;44826;51.596;5.624;2024-03-08T06:06:54;101439.78;;;0.05;92.65
59043;BME280;44826;51.596;5.624;2024-03-08T06:09:22;101440.63;;;0.05;92.58
59043;BME280;44826;51.596;5.624;2024-03-08T06:11:49;101434.66;;;0.05;92.30
59043;BME280;44826;51.596;5.624;2024-03-08T06:14:14;101438.94;;;0.06;92.62
59043;BME280;44826;51.596;5.624;2024-03-08T06:16:44;101432.94;;;0.05;92.81
59043;BME280;44826;51.596;5.624;2024-03-08T06:19:09;101434.69;;;0.06;92.41
59043;BME280;44826;51.596;5.624;2024-03-08T06:21:35;101429.56;;;0.06;93.01
59043;BME280;44826;51.596;5.624;2024-03-08T06:24:00;101426.16;;;0.06;92.71
59043;BME280;44826;51.596;5.624;2024-03-08T06:26:25;101421.88;;;0.06;92.70
59043;BME280;44826;51.596;5.624;2024-03-08T06:28:54;101423.63;;;0.07;92.60
59043;BME280;44826;51.596;5.624;2024-03-08T06:31:19;101415.97;;;0.09;92.70
59043;BME280;44826;51.596;5.624;2024-03-08T06:33:45;101415.13;;;0.08;93.00
59043;BME280;44826;51.596;5.624;2024-03-08T06:36:10;101417.78;;;0.13;92.68
59043;BME280;44826;51.596;5.624;2024-03-08T06:38:40;101418.59;;;0.10;92.41
59043;BME280;44826;51.596;5.624;2024-03-08T06:41:11;101416.94;;;0.12;92.77
59043;BME280;44826;51.596;5.624;2024-03-08T06:43:41;101405.88;;;0.13;92.45
59043;BME280;44826;51.596;5.624;2024-03-08T06:46:06;101409.34;;;0.16;92.67
59043;BME280;44826;51.596;5.624;2024-03-08T06:48:31;101406.00;;;0.18;92.53
59043;BME280;44826;51.596;5.624;2024-03-08T06:50:57;101403.47;;;0.20;92.48
59043;BME280;44826;51.596;5.624;2024-03-08T06:53:22;101405.25;;;0.22;92.61
59043;BME280;44826;51.596;5.624;2024-03-08T06:55:48;101404.53;;;0.28;92.39
59043;BME280;44826;51.596;5.624;2024-03-08T06:58:13;101405.47;;;0.30;92.47
59043;BME280;44826;51.596;5.624;2024-03-08T07:00:38;101398.69;;;0.32;92.78
59043;BME280;44826;51.596;5.624;2024-03-08T07:03:08;101405.53;;;0.33;92.21
59043;BME280;44826;51.596;5.624;2024-03-08T07:05:37;101407.34;;;0.37;92.68
59043;BME280;44826;51.596;5.624;2024-03-08T07:08:04;101404.03;;;0.41;92.56
59043;BME280;44826;51.596;5.624;2024-03-08T07:10:31;101398.09;;;0.42;92.73
59043;BME280;44826;51.596;5.624;2024-03-08T07:12:56;101404.09;;;0.44;92.87
59043;BME280;44826;51.596;5.624;2024-03-08T07:15:21;101398.25;;;0.49;92.32
59043;BME280;44826;51.596;5.624;2024-03-08T07:17:48;101391.47;;;0.51;92.67
59043;BME280;44826;51.596;5.624;2024-03-08T07:20:14;101390.69;;;0.55;92.63
59043;BME280;44826;51.596;5.624;2024-03-08T07:22:44;101399.38;;;0.60;92.03
59043;BME280;44826;51.596;5.624;2024-03-08T07:25:12;101390.84;;;0.61;92.19
59043;BME280;44826;51.596;5.624;2024-03-08T07:27:53;101385.81;;;0.64;92.24
59043;BME280;44826;51.596;5.624;2024-03-08T07:30:26;101385.91;;;0.69;92.44
59043;BME280;44826;51.596;5.624;2024-03-08T07:33:10;101384.34;;;0.74;92.24
59043;BME280;44826;51.596;5.624;2024-03-08T07:35:38;101385.28;;;0.78;92.54
59043;BME280;44826;51.596;5.624;2024-03-08T07:38:04;101386.25;;;0.83;92.14
59043;BME280;44826;51.596;5.624;2024-03-08T07:40:31;101381.22;;;0.87;91.99
59043;BME280;44826;51.596;5.624;2024-03-08T07:42:56;101376.13;;;0.89;91.74
59043;BME280;44826;51.596;5.624;2024-03-08T07:45:23;101374.53;;;0.94;92.09
59043;BME280;44826;51.596;5.624;2024-03-08T07:47:48;101377.19;;;0.99;91.89
59043;BME280;44826;51.596;5.624;2024-03-08T07:50:14;101372.19;;;1.03;92.25
59043;BME280;44826;51.596;5.624;2024-03-08T07:52:41;101371.41;;;1.08;92.21
59043;BME280;44826;51.596;5.624;2024-03-08T07:55:07;101363.00;;;1.13;92.32
59043;BME280;44826;51.596;5.624;2024-03-08T07:57:33;101359.66;;;1.16;92.09
59043;BME280;44826;51.596;5.624;2024-03-08T07:59:58;101358.91;;;1.21;92.14
59043;BME280;44826;51.596;5.624;2024-03-08T08:02:24;101359.06;;;1.29;91.66
59043;BME280;44826;51.596;5.624;2024-03-08T08:04:49;101360.88;;;1.33;91.30
59043;BME280;44826;51.596;5.624;2024-03-08T08:07:14;101353.25;;;1.36;91.43
59043;BME280;44826;51.596;5.624;2024-03-08T08:09:40;101349.03;;;1.40;90.87
59043;BME280;44826;51.596;5.624;2024-03-08T08:12:08;101347.41;;;1.44;90.93
59043;BME280;44826;51.596;5.624;2024-03-08T08:14:37;101344.09;;;1.49;91.52
59043;BME280;44826;51.596;5.624;2024-03-08T08:17:03;101351.84;;;1.54;91.41
59043;BME280;44826;51.596;5.624;2024-03-08T08:19:29;101339.16;;;1.59;91.24
59043;BME280;44826;51.596;5.624;2024-03-08T08:21:54;101335.84;;;1.64;91.80
59043;BME280;44826;51.596;5.624;2024-03-08T08:24:20;101341.09;;;1.71;91.71
59043;BME280;44826;51.596;5.624;2024-03-08T08:26:47;101330.03;;;1.75;91.42
59043;BME280;44826;51.596;5.624;2024-03-08T08:29:12;101325.03;;;1.81;90.98
59043;BME280;44826;51.596;5.624;2024-03-08T08:31:38;101322.53;;;1.86;91.25
59043;BME280;44826;51.596;5.624;2024-03-08T08:34:03;101320.09;;;1.93;91.09
59043;BME280;44826;51.596;5.624;2024-03-08T08:36:29;101320.22;;;2.00;90.96
59043;BME280;44826;51.596;5.624;2024-03-08T08:38:56;101308.34;;;2.05;90.82
59043;BME280;44826;51.596;5.624;2024-03-08T08:41:23;101301.56;;;2.10;91.09
59043;BME280;44826;51.596;5.624;2024-03-08T08:43:49;101307.66;;;2.17;90.58
59043;BME280;44826;51.596;5.624;2024-03-08T08:46:17;101301.75;;;2.22;90.20
59043;BME280;44826;51.596;5.624;2024-03-08T08:48:42;101296.72;;;2.28;90.13
59043;BME280;44826;51.596;5.624;2024-03-08T08:51:11;101295.97;;;2.34;90.75
59043;BME280;44826;51.596;5.624;2024-03-08T08:53:41;101302.94;;;2.41;89.61
59043;BME280;44826;51.596;5.624;2024-03-08T08:56:08;101291.88;;;2.49;90.33
59043;BME280;44826;51.596;5.624;2024-03-08T08:58:34;101293.72;;;2.56;89.61
59043;BME280;44826;51.596;5.624;2024-03-08T09:01:00;101291.25;;;2.64;89.29
59043;BME280;44826;51.596;5.624;2024-03-08T09:03:26;101282.81;;;2.71;89.37
59043;BME280;44826;51.596;5.624;2024-03-08T09:05:53;101282.03;;;2.77;89.31
59043;BME280;44826;51.596;5.624;2024-03-08T09:08:18;101275.31;;;2.86;89.59
59043;BME280;44826;51.596;5.624;2024-03-08T09:10:45;101263.41;;;2.95;88.84
59043;BME280;44826;51.596;5.624;2024-03-08T09:13:12;101268.63;;;3.02;89.54
59043;BME280;44826;51.596;5.624;2024-03-08T09:15:38;101267.00;;;3.09;89.67
59043;BME280;44826;51.596;5.624;2024-03-08T09:18:06;101262.00;;;3.18;89.12
59043;BME280;44826;51.596;5.624;2024-03-08T09:20:31;101248.34;;;3.26;89.36
59043;BME280;44826;51.596;5.624;2024-03-08T09:22:56;101250.16;;;3.33;87.98
59043;BME280;44826;51.596;5.624;2024-03-08T09:25:22;101253.63;;;3.40;88.71
59043;BME280;44826;51.596;5.624;2024-03-08T09:27:49;101251.09;;;3.44;87.82
59043;BME280;44826;51.596;5.624;2024-03-08T09:30:15;101250.34;;;3.52;86.86
59043;BME280;44826;51.596;5.624;2024-03-08T09:32:40;101251.25;;;3.58;87.35
59043;BME280;44826;51.596;5.624;2024-03-08T09:35:06;101238.44;;;3.63;87.09
59043;BME280;44826;51.596;5.624;2024-03-08T09:37:33;101233.34;;;3.69;87.22
59043;BME280;44826;51.596;5.624;2024-03-08T09:39:59;101224.81;;;3.73;86.56
59043;BME280;44826;51.596;5.624;2024-03-08T09:42:24;101228.31;;;3.82;86.84
59043;BME280;44826;51.596;5.624;2024-03-08T09:44:50;101224.09;;;3.90;87.66
59043;BME280;44826;51.596;5.624;2024-03-08T09:47:17;101209.56;;;3.98;86.41
59043;BME280;44826;51.596;5.624;2024-03-08T09:49:43;101213.03;;;4.05;86.06
59043;BME280;44826;51.596;5.624;2024-03-08T09:52:08;101202.78;;;4.09;85.41
59043;BME280;44826;51.596;5.624;2024-03-08T09:54:35;101195.97;;;4.18;86.01
59043;BME280;44826;51.596;5.624;2024-03-08T09:57:06;101192.56;;;4.22;84.79
59043;BME280;44826;51.596;5.624;2024-03-08T09:59:33;101182.28;;;4.28;84.81
59043;BME280;44826;51.596;5.624;2024-03-08T10:01:58;101175.44;;;4.33;85.62
59043;BME280;44826;51.596;5.624;2024-03-08T10:04:25;101175.50;;;4.39;85.12
59043;BME280;44826;51.596;5.624;2024-03-08T10:06:53;101166.94;;;4.44;85.40
59043;BME280;44826;51.596;5.624;2024-03-08T10:09:19;101165.25;;;4.52;85.26
59043;BME280;44826;51.596;5.624;2024-03-08T10:11:45;101150.66;;;4.59;86.16
59043;BME280;44826;51.596;5.624;2024-03-08T10:14:11;101154.16;;;4.67;85.21
59043;BME280;44826;51.596;5.624;2024-03-08T10:16:38;101153.28;;;4.71;84.27
59043;BME280;44826;51.596;5.624;2024-03-08T10:19:04;101163.63;;;4.76;83.98
59043;BME280;44826;51.596;5.624;2024-03-08T10:21:31;101157.59;;;4.80;84.34
59043;BME280;44826;51.596;5.624;2024-03-08T10:23:58;101138.75;;;4.85;84.32
59043;BME280;44826;51.596;5.624;2024-03-08T10:26:24;101142.19;;;4.95;85.75
59043;BME280;44826;51.596;5.624;2024-03-08T10:28:51;101144.78;;;5.01;85.26
59043;BME280;44826;51.596;5.624;2024-03-08T10:31:18;101127.63;;;5.10;83.21
59043;BME280;44826;51.596;5.624;2024-03-08T10:33:47;101118.16;;;5.13;81.54
59043;BME280;44826;51.596;5.624;2024-03-08T10:36:15;101120.75;;;5.18;81.72
59043;BME280;44826;51.596;5.624;2024-03-08T10:38:42;101118.16;;;5.23;81.30
59043;BME280;44826;51.596;5.624;2024-03-08T10:41:12;101116.44;;;5.28;82.00
59043;BME280;44826;51.596;5.624;2024-03-08T10:46:33;101109.59;;;5.41;81.19
59043;BME280;44826;51.596;5.624;2024-03-08T10:49:08;101111.31;;;5.45;80.19
59043;BME280;44826;51.596;5.624;2024-03-08T10:51:38;101109.59;;;5.52;79.68
59043;BME280;44826;51.596;5.624;2024-03-08T10:54:07;101095.81;;;5.57;79.71
59043;BME280;44826;51.596;5.624;2024-03-08T10:56:35;101094.94;;;5.65;80.43
59043;BME280;44826;51.596;5.624;2024-03-08T10:59:01;101083.75;;;5.70;77.97
59043;BME280;44826;51.596;5.624;2024-03-08T11:01:27;101077.69;;;5.74;78.26
59043;BME280;44826;51.596;5.624;2024-03-08T11:03:52;101090.59;;;5.81;78.39
59043;BME280;44826;51.596;5.624;2024-03-08T11:06:47;101075.13;;;5.87;79.58
59043;BME280;44826;51.596;5.624;2024-03-08T11:09:33;101077.66;;;5.90;79.28
59043;BME280;44826;51.596;5.624;2024-03-08T11:12:19;101066.47;;;5.97;79.68
59043;BME280;44826;51.596;5.624;2024-03-08T11:14:47;101063.06;;;6.04;76.46
59043;BME280;44826;51.596;5.624;2024-03-08T11:17:20;101048.38;;;6.11;77.96
59043;BME280;44826;51.596;5.624;2024-03-08T11:19:48;101050.06;;;6.20;79.05
59043;BME280;44826;51.596;5.624;2024-03-08T11:22:21;101043.16;;;6.27;77.42
59043;BME280;44826;51.596;5.624;2024-03-08T11:24:49;101041.41;;;6.32;78.01
59043;BME280;44826;51.596;5.624;2024-03-08T11:27:15;101032.75;;;6.36;76.03
59043;BME280;44826;51.596;5.624;2024-03-08T11:29:40;101024.97;;;6.41;76.03
59043;BME280;44826;51.596;5.624;2024-03-08T11:32:14;101017.19;;;6.44;76.00
59043;BME280;44826;51.596;5.624;2024-03-08T11:34:42;101007.69;;;6.50;76.43
59043;BME280;44826;51.596;5.624;2024-03-08T11:37:12;100997.28;;;6.58;75.85
59043;BME280;44826;51.596;5.624;2024-03-08T11:39:39;101005.03;;;6.66;75.88
59043;BME280;44826;51.596;5.624;2024-03-08T11:42:05;100996.31;;;6.76;74.84
59043;BME280;44826;51.596;5.624;2024-03-08T11:44:31;100996.25;;;6.86;74.81
59043;BME280;44826;51.596;5.624;2024-03-08T11:46:57;101004.78;;;6.95;73.98
59043;BME280;44826;51.596;5.624;2024-03-08T11:49:22;100995.25;;;7.02;74.19
59043;BME280;44826;51.596;5.624;2024-03-08T11:51:51;100989.13;;;7.11;74.61
59043;BME280;44826;51.596;5.624;2024-03-08T11:54:17;100983.00;;;7.20;75.36
59043;BME280;44826;51.596;5.624;2024-03-08T11:56:44;100989.84;;;7.28;74.18
59043;BME280;44826;51.596;5.624;2024-03-08T11:59:11;100984.59;;;7.35;72.70
59043;BME280;44826;51.596;5.624;2024-03-08T12:01:38;100978.47;;;7.43;74.11
59043;BME280;44826;51.596;5.624;2024-03-08T12:04:04;100976.63;;;7.56;74.87
59043;BME280;44826;51.596;5.624;2024-03-08T12:06:38;100973.03;;;7.68;74.35
59043;BME280;44826;51.596;5.624;2024-03-08T12:09:10;100973.75;;;7.80;72.43
59043;BME280;44826;51.596;5.624;2024-03-08T12:11:36;100977.06;;;7.93;71.25
59043;BME280;44826;51.596;5.624;2024-03-08T12:14:03;100962.25;;;8.02;70.40
59043;BME280;44826;51.596;5.624;2024-03-08T12:16:28;100959.50;;;8.13;69.71
59043;BME280;44826;51.596;5.624;2024-03-08T12:18:54;100964.53;;;8.24;69.34
59043;BME280;44826;51.596;5.624;2024-03-08T12:21:20;100966.97;;;8.37;68.24
59043;BME280;44826;51.596;5.624;2024-03-08T12:23:47;100954.69;;;8.51;67.57
59043;BME280;44826;51.596;5.624;2024-03-08T12:26:35;100947.63;;;8.61;70.99
59043;BME280;44826;51.596;5.624;2024-03-08T12:29:21;100946.63;;;8.68;69.78
59043;BME280;44826;51.596;5.624;2024-03-08T12:31:51;100945.63;;;8.77;68.94
59043;BME280;44826;51.596;5.624;2024-03-08T12:34:20;100933.31;;;8.88;66.87
59043;BME280;44826;51.596;5.624;2024-03-08T12:36:47;100929.75;;;8.95;67.02
59043;BME280;44826;51.596;5.624;2024-03-08T12:39:16;100926.22;;;8.98;66.74
59043;BME280;44826;51.596;5.624;2024-03-08T12:41:42;100922.72;;;9.02;64.84
59043;BME280;44826;51.596;5.624;2024-03-08T12:44:08;100917.50;;;9.04;65.47
59043;BME280;44826;51.596;5.624;2024-03-08T12:46:37;100907.88;;;9.10;65.81
59043;BME280;44826;51.596;5.624;2024-03-08T12:49:07;100918.06;;;9.21;66.49
59043;BME280;44826;51.596;5.624;2024-03-08T12:51:33;100913.41;;;9.37;65.34
59043;BME280;44826;51.596;5.624;2024-03-08T12:53:58;100903.66;;;9.49;64.17
59043;BME280;44826;51.596;5.624;2024-03-08T12:56:31;100909.50;;;9.59;64.87
59043;BME280;44826;51.596;5.624;2024-03-08T12:58:58;100899.78;;;9.68;66.14
59043;BME280;44826;51.596;5.624;2024-03-08T13:01:24;100893.53;;;9.77;63.70